Time;durP1;ratioP1;P1;durP2;ratioP2;P2;SDS_P1;SDS_P2;PMS_P1;PMS_P2;Temp;Humidity;BMP_temperature;BMP_pressure;BME280_temperature;BME280_humidity;BME280_pressure;Samples;Min_cycle;Max_cycle;Signal;HPM_P1;HPM_P2
2022/07/06 00:01:42;;;;;;;5.57;1.50;;;15.10;99.90;;;;;;5071126;28;20045;-65
2022/07/06 00:04:08;;;;;;;4.88;1.40;;;15.10;99.90;;;;;;5071290;28;20117;-66
2022/07/06 00:06:33;;;;;;;5.07;1.13;;;15.10;99.90;;;;;;5071100;28;20043;-65
2022/07/06 00:08:59;;;;;;;3.05;0.70;;;15.10;99.90;;;;;;5071294;28;20045;-65
2022/07/06 00:11:25;;;;;;;7.63;1.30;;;15.10;99.90;;;;;;5071321;28;20037;-66
2022/07/06 00:13:51;;;;;;;4.72;0.95;;;15.00;99.90;;;;;;5071514;28;20051;-65
2022/07/06 00:16:17;;;;;;;3.53;0.98;;;15.00;99.90;;;;;;5071334;28;20361;-66
2022/07/06 00:18:43;;;;;;;4.65;1.00;;;15.00;99.90;;;;;;5071284;28;20041;-65
2022/07/06 00:21:09;;;;;;;4.65;1.10;;;15.10;99.90;;;;;;5070939;28;20051;-66
2022/07/06 00:23:34;;;;;;;3.65;0.88;;;14.90;99.90;;;;;;5071177;28;20071;-67
2022/07/06 00:26:00;;;;;;;5.43;1.60;;;15.00;99.90;;;;;;5071078;28;20120;-66
2022/07/06 00:28:26;;;;;;;6.70;1.20;;;14.90;99.90;;;;;;5069624;28;20044;-66
2022/07/06 00:30:52;;;;;;;2.38;0.73;;;14.90;99.90;;;;;;5071030;28;20032;-66
2022/07/06 00:33:18;;;;;;;3.95;1.00;;;14.90;99.90;;;;;;5072071;28;20032;-66
2022/07/06 00:35:44;;;;;;;4.38;0.80;;;14.80;99.90;;;;;;5074201;28;20514;-66
2022/07/06 00:38:09;;;;;;;5.68;1.05;;;14.80;99.90;;;;;;5073371;28;20406;-66
2022/07/06 00:40:35;;;;;;;3.13;0.70;;;14.80;99.90;;;;;;5074558;28;20410;-66
2022/07/06 00:43:00;;;;;;;4.25;1.30;;;14.70;99.90;;;;;;5074508;28;20036;-66
2022/07/06 00:45:26;;;;;;;5.70;1.00;;;14.70;99.90;;;;;;5074364;28;20479;-66
2022/07/06 00:47:52;;;;;;;3.28;1.17;;;14.70;99.90;;;;;;5074312;28;20083;-66
2022/07/06 00:50:20;;;;;;;4.75;0.90;;;14.70;99.90;;;;;;5074096;28;20505;-66
2022/07/06 00:53:00;;;;;;;3.05;0.95;;;14.70;99.90;;;;;;5074444;28;20050;-66
2022/07/06 00:55:32;;;;;;;3.38;0.80;;;14.70;99.90;;;;;;5074312;28;20119;-65
2022/07/06 00:58:00;;;;;;;3.70;1.00;;;14.70;99.90;;;;;;5074220;28;20072;-66
2022/07/06 01:00:27;;;;;;;6.10;1.00;;;14.70;99.90;;;;;;5073967;28;20079;-67
2022/07/06 01:02:53;;;;;;;7.10;1.10;;;14.60;99.90;;;;;;5072703;28;20483;-66
2022/07/06 01:05:20;;;;;;;5.32;1.08;;;14.60;99.90;;;;;;5073814;28;20490;-66
2022/07/06 01:07:48;;;;;;;6.40;0.90;;;14.60;99.90;;;;;;5074159;28;20050;-66
2022/07/06 01:10:15;;;;;;;8.55;1.02;;;14.60;99.90;;;;;;5074003;28;20040;-65
2022/07/06 01:12:43;;;;;;;9.13;2.15;;;14.60;99.90;;;;;;5073938;28;20391;-66
2022/07/06 01:15:20;;;;;;;5.80;1.15;;;14.60;99.90;;;;;;5073624;28;20386;-66
2022/07/06 01:17:47;;;;;;;4.28;1.02;;;14.60;99.90;;;;;;5073985;28;20041;-66
2022/07/06 01:20:17;;;;;;;2.63;1.02;;;14.60;99.90;;;;;;5073850;28;20044;-66
2022/07/06 01:22:44;;;;;;;1.98;0.77;;;14.60;99.90;;;;;;5073720;28;20127;-66
2022/07/06 01:28:35;;;;;;;3.22;0.70;;;14.60;99.90;;;;;;5073496;28;20044;-65
2022/07/06 01:31:00;;;;;;;4.88;0.88;;;14.50;99.90;;;;;;5073650;28;20040;-65
2022/07/06 01:33:26;;;;;;;5.65;1.10;;;14.50;99.90;;;;;;5073438;28;20032;-65
2022/07/06 01:35:52;;;;;;;4.35;1.25;;;14.50;99.90;;;;;;5073478;28;20046;-66
2022/07/06 01:38:17;;;;;;;7.85;1.08;;;14.50;99.90;;;;;;5073229;28;20137;-64
2022/07/06 01:40:43;;;;;;;4.80;1.30;;;14.60;99.90;;;;;;5073469;28;20154;-65
2022/07/06 01:43:08;;;;;;;12.27;1.33;;;14.60;99.90;;;;;;5073056;28;20437;-65
2022/07/06 01:45:34;;;;;;;4.85;1.23;;;14.60;99.90;;;;;;5073070;28;20071;-65
2022/07/06 01:48:00;;;;;;;5.30;1.00;;;14.60;99.90;;;;;;5072288;28;20045;-66
2022/07/06 01:50:25;;;;;;;3.13;1.13;;;14.70;99.90;;;;;;5073328;28;20036;-65
2022/07/06 01:52:51;;;;;;;3.65;0.98;;;14.70;99.90;;;;;;5072976;28;20040;-65
2022/07/06 01:55:17;;;;;;;7.18;1.42;;;14.70;99.90;;;;;;5073200;28;20138;-65
2022/07/06 01:57:42;;;;;;;5.97;1.05;;;14.70;99.90;;;;;;5073196;28;20119;-65
2022/07/06 02:00:08;;;;;;;5.00;1.10;;;14.70;99.90;;;;;;5072828;28;20394;-65
2022/07/06 02:02:34;;;;;;;5.15;1.42;;;14.80;99.90;;;;;;5072769;28;20098;-65
2022/07/06 02:04:59;;;;;;;3.97;1.10;;;14.80;99.90;;;;;;5072746;28;20036;-65
2022/07/06 02:07:25;;;;;;;3.80;0.88;;;14.80;99.90;;;;;;5072693;28;20032;-66
2022/07/06 02:09:51;;;;;;;4.32;1.13;;;14.80;99.90;;;;;;5072866;28;20091;-65
2022/07/06 02:12:16;;;;;;;5.60;1.60;;;14.80;99.90;;;;;;5072803;28;20041;-65
2022/07/06 02:14:42;;;;;;;5.25;1.27;;;14.80;99.90;;;;;;5072701;28;20044;-66
2022/07/06 02:17:07;;;;;;;6.75;2.28;;;14.70;99.90;;;;;;5072587;28;20384;-65
2022/07/06 02:19:33;;;;;;;6.43;1.17;;;14.70;99.90;;;;;;5072640;28;20230;-65
2022/07/06 02:21:59;;;;;;;4.90;1.30;;;14.60;99.90;;;;;;5072303;28;20044;-66
2022/07/06 02:24:24;;;;;;;5.60;1.10;;;14.70;99.90;;;;;;5072505;28;20399;-65
2022/07/06 02:26:50;;;;;;;4.35;1.27;;;14.60;99.90;;;;;;5072793;28;20069;-65
2022/07/06 02:29:15;;;;;;;3.15;1.05;;;14.60;99.90;;;;;;5071471;28;20498;-65
2022/07/06 02:31:41;;;;;;;4.38;1.10;;;14.50;99.90;;;;;;5072253;28;20040;-66
2022/07/06 02:34:07;;;;;;;8.30;1.50;;;14.50;99.90;;;;;;5072290;28;20068;-65
2022/07/06 02:36:32;;;;;;;4.43;1.00;;;14.50;99.90;;;;;;5072114;28;20040;-65
2022/07/06 02:38:58;;;;;;;5.45;0.88;;;14.40;99.90;;;;;;5072158;28;20048;-65
2022/07/06 02:41:23;;;;;;;3.42;0.98;;;14.40;99.90;;;;;;5070780;28;20102;-65
2022/07/06 02:43:49;;;;;;;8.48;1.48;;;14.30;99.90;;;;;;5072111;28;20036;-65
2022/07/06 02:46:15;;;;;;;5.90;1.27;;;14.20;99.90;;;;;;5072103;28;20036;-65
2022/07/06 02:48:40;;;;;;;2.60;0.95;;;14.30;99.90;;;;;;5072060;28;20067;-66
2022/07/06 02:51:06;;;;;;;4.22;1.00;;;14.20;99.90;;;;;;5071944;28;20045;-65
2022/07/06 02:53:31;;;;;;;5.88;1.17;;;14.10;99.90;;;;;;5070695;28;20174;-66
2022/07/06 02:55:57;;;;;;;4.28;1.10;;;14.10;99.90;;;;;;5071576;28;20032;-65
2022/07/06 02:58:23;;;;;;;4.90;1.35;;;14.00;99.90;;;;;;5071968;28;20036;-66
2022/07/06 03:00:48;;;;;;;2.97;0.90;;;14.00;99.90;;;;;;5071786;28;20072;-66
2022/07/06 03:03:14;;;;;;;4.93;1.50;;;13.90;99.90;;;;;;5072160;28;20439;-66
2022/07/06 03:05:39;;;;;;;7.20;1.25;;;13.80;99.90;;;;;;5071860;28;20431;-66
2022/07/06 03:08:05;;;;;;;2.55;0.88;;;13.90;99.90;;;;;;5071963;28;20044;-65
2022/07/06 03:10:31;;;;;;;3.78;1.42;;;13.80;99.90;;;;;;5072005;28;20032;-65
2022/07/06 03:12:56;;;;;;;9.00;1.20;;;13.80;99.90;;;;;;5071728;28;20395;-65
2022/07/06 03:15:22;;;;;;;2.92;1.20;;;13.70;99.90;;;;;;5071918;28;20059;-65
2022/07/06 03:17:48;;;;;;;2.55;1.00;;;13.70;99.90;;;;;;5071683;28;20102;-65
2022/07/06 03:20:13;;;;;;;3.25;1.30;;;13.60;99.90;;;;;;5071906;28;20048;-67
2022/07/06 03:22:39;;;;;;;5.25;1.00;;;13.60;99.90;;;;;;5071417;28;20129;-65
2022/07/06 03:25:05;;;;;;;3.60;1.08;;;13.60;99.90;;;;;;5071870;28;20402;-65
2022/07/06 03:27:31;;;;;;;4.43;1.20;;;13.60;99.90;;;;;;5071672;28;20041;-65
2022/07/06 03:29:56;;;;;;;4.05;1.20;;;13.60;99.90;;;;;;5071637;28;20112;-65
2022/07/06 03:32:22;;;;;;;6.68;1.20;;;13.50;99.90;;;;;;5071636;28;20063;-65
2022/07/06 03:34:47;;;;;;;6.82;1.42;;;13.50;99.90;;;;;;5071450;28;20176;-64
2022/07/06 03:37:13;;;;;;;4.60;1.50;;;13.50;99.90;;;;;;5071538;28;20070;-64
2022/07/06 03:39:39;;;;;;;4.55;1.00;;;13.50;99.90;;;;;;5071820;28;20127;-65
2022/07/06 03:42:05;;;;;;;7.47;1.17;;;13.40;99.90;;;;;;5071781;28;20156;-66
2022/07/06 03:44:30;;;;;;;8.63;1.92;;;13.40;99.90;;;;;;5071747;28;20078;-66
2022/07/06 03:46:56;;;;;;;3.25;1.08;;;13.40;99.90;;;;;;5071439;28;20386;-65
2022/07/06 03:49:22;;;;;;;6.63;1.65;;;13.40;99.90;;;;;;5071254;28;20072;-66
2022/07/06 03:51:47;;;;;;;4.93;1.02;;;13.30;99.90;;;;;;5071581;28;20051;-66
2022/07/06 03:54:13;;;;;;;7.38;1.48;;;13.30;99.90;;;;;;5071516;28;20033;-65
2022/07/06 03:56:39;;;;;;;4.68;1.20;;;13.30;99.90;;;;;;5070300;28;20467;-67
2022/07/06 03:59:05;;;;;;;4.28;1.70;;;13.30;99.90;;;;;;5071391;28;20513;-66
2022/07/06 04:01:30;;;;;;;4.22;1.02;;;13.20;99.90;;;;;;5071301;28;20040;-65
2022/07/06 04:03:57;;;;;;;2.88;1.30;;;13.20;99.90;;;;;;5070734;28;20070;-65
2022/07/06 04:06:23;;;;;;;3.75;0.85;;;13.20;99.90;;;;;;5071573;28;20045;-65
2022/07/06 04:08:48;;;;;;;7.00;1.30;;;13.20;99.90;;;;;;5073438;28;20089;-65
2022/07/06 04:11:14;;;;;;;4.18;1.35;;;13.20;99.90;;;;;;5075105;28;20037;-65
2022/07/06 04:13:40;;;;;;;4.75;1.23;;;13.40;99.90;;;;;;5075107;28;20119;-65
2022/07/06 04:16:06;;;;;;;9.18;1.35;;;13.30;99.90;;;;;;5074817;28;20555;-66
2022/07/06 04:18:32;;;;;;;6.32;2.10;;;13.40;99.90;;;;;;5074860;28;20039;-65
2022/07/06 04:20:58;;;;;;;5.60;1.20;;;13.40;99.90;;;;;;5074837;28;20399;-66
2022/07/06 04:23:24;;;;;;;3.47;1.15;;;13.50;99.90;;;;;;5075201;28;20044;-65
2022/07/06 04:25:49;;;;;;;4.20;1.55;;;13.50;99.90;;;;;;5075092;28;20131;-66
2022/07/06 04:28:15;;;;;;;7.10;1.42;;;13.60;99.90;;;;;;5074841;28;20076;-65
2022/07/06 04:30:41;;;;;;;4.00;0.93;;;13.60;99.90;;;;;;5074683;28;20037;-64
2022/07/06 04:33:07;;;;;;;4.18;0.90;;;13.60;99.90;;;;;;5074550;28;20040;-65
2022/07/06 04:35:33;;;;;;;5.45;1.65;;;13.70;99.90;;;;;;5074361;28;20431;-65
2022/07/06 04:37:58;;;;;;;3.95;0.82;;;13.80;99.90;;;;;;5073334;28;20049;-65
2022/07/06 04:40:24;;;;;;;9.52;1.38;;;13.80;99.90;;;;;;5074411;28;20127;-65
2022/07/06 04:42:50;;;;;;;5.20;1.35;;;13.90;99.90;;;;;;5073096;28;20059;-64
2022/07/06 04:45:15;;;;;;;4.97;1.02;;;13.90;99.90;;;;;;5074413;28;20037;-64
2022/07/06 04:47:42;;;;;;;4.90;1.05;;;13.90;99.90;;;;;;5072934;28;20090;-67
2022/07/06 04:50:08;;;;;;;3.33;0.85;;;13.90;99.90;;;;;;5074559;28;20091;-65
2022/07/06 04:52:33;;;;;;;5.20;0.90;;;14.00;99.90;;;;;;5073247;28;20673;-65
2022/07/06 04:54:59;;;;;;;3.15;0.70;;;14.00;99.90;;;;;;5074416;28;20040;-65
2022/07/06 04:57:29;;;;;;;5.05;0.80;;;14.00;99.90;;;;;;5074186;28;20447;-66
2022/07/06 04:59:55;;;;;;;4.07;1.08;;;14.00;99.90;;;;;;5074200;28;20051;-65
2022/07/06 05:02:21;;;;;;;7.88;0.77;;;14.10;99.90;;;;;;5073894;28;20044;-65
2022/07/06 05:04:46;;;;;;;6.10;0.68;;;14.10;99.90;;;;;;5074225;28;20033;-65
2022/07/06 05:07:12;;;;;;;5.65;0.73;;;14.10;99.90;;;;;;5074221;28;20115;-65
2022/07/06 05:09:37;;;;;;;3.70;0.80;;;14.20;99.90;;;;;;5074006;28;20447;-65
2022/07/06 05:12:03;;;;;;;4.32;1.00;;;14.30;99.90;;;;;;5073958;28;20041;-66
2022/07/06 05:14:29;;;;;;;3.83;1.08;;;14.30;99.90;;;;;;5074190;28;20485;-65
2022/07/06 05:16:55;;;;;;;5.07;1.17;;;14.30;99.90;;;;;;5073929;28;20072;-66
2022/07/06 05:19:20;;;;;;;2.97;0.70;;;14.20;99.90;;;;;;5073485;28;20115;-65
2022/07/06 05:21:46;;;;;;;2.58;1.05;;;14.30;99.90;;;;;;5073839;28;20440;-66
2022/07/06 05:24:12;;;;;;;5.70;1.52;;;14.30;99.90;;;;;;5073809;28;20454;-65
2022/07/06 05:26:37;;;;;;;2.95;1.00;;;14.30;99.90;;;;;;5073502;28;20500;-65
2022/07/06 05:29:03;;;;;;;3.03;0.80;;;14.30;99.90;;;;;;5073641;28;20114;-66
2022/07/06 05:31:28;;;;;;;5.25;0.77;;;14.30;99.90;;;;;;5073519;28;20076;-66
2022/07/06 05:33:54;;;;;;;2.03;1.05;;;14.30;99.90;;;;;;5073552;28;20170;-65
2022/07/06 05:36:20;;;;;;;6.72;1.98;;;14.30;99.90;;;;;;5073618;28;20039;-65
2022/07/06 05:38:45;;;;;;;5.53;0.95;;;14.30;99.90;;;;;;5073251;28;20535;-65
2022/07/06 05:41:11;;;;;;;6.65;1.02;;;14.30;99.90;;;;;;5073204;28;20083;-65
2022/07/06 05:43:37;;;;;;;4.72;0.80;;;14.30;99.90;;;;;;5073371;28;20064;-65
2022/07/06 05:46:03;;;;;;;2.50;0.80;;;14.30;99.90;;;;;;5073249;28;20044;-65
2022/07/06 05:51:13;;;;;;;4.70;1.02;;;14.40;99.90;;;;;;5073522;28;20049;-65
2022/07/06 05:53:39;;;;;;;4.13;1.10;;;14.60;99.90;;;;;;5071762;28;20188;-65
2022/07/06 05:56:04;;;;;;;2.97;0.90;;;14.60;99.90;;;;;;5072923;28;20123;-64
2022/07/06 05:58:30;;;;;;;3.33;0.80;;;14.60;99.90;;;;;;5072957;28;20447;-64
2022/07/06 06:00:56;;;;;;;6.22;0.70;;;14.60;99.90;;;;;;5073098;28;20055;-66
2022/07/06 06:03:21;;;;;;;3.67;0.70;;;14.60;99.90;;;;;;5073056;28;20037;-65
2022/07/06 06:05:47;;;;;;;3.53;0.60;;;14.70;99.90;;;;;;5072851;28;20032;-65
2022/07/06 06:08:13;;;;;;;5.55;1.48;;;14.60;99.90;;;;;;5072701;28;20117;-65
2022/07/06 06:10:38;;;;;;;3.13;0.65;;;14.60;99.90;;;;;;5072801;28;20039;-65
2022/07/06 06:13:04;;;;;;;2.35;0.98;;;14.60;99.90;;;;;;5072630;28;20048;-66
2022/07/06 06:15:30;;;;;;;4.88;0.98;;;14.60;99.90;;;;;;5072573;28;20083;-66
2022/07/06 06:17:55;;;;;;;2.22;0.70;;;14.40;99.90;;;;;;5072575;28;20119;-65
2022/07/06 06:20:21;;;;;;;2.40;0.65;;;14.50;99.90;;;;;;5072676;28;20193;-65
2022/07/06 06:22:58;;;;;;;4.95;0.60;;;14.60;99.90;;;;;;5072425;28;20494;-65
2022/07/06 06:25:38;;;;;;;4.30;0.70;;;14.60;99.90;;;;;;5072445;28;20043;-65
2022/07/06 06:28:05;;;;;;;4.65;0.98;;;14.60;99.90;;;;;;5072364;28;20387;-65
2022/07/06 06:30:32;;;;;;;2.88;0.85;;;14.50;99.90;;;;;;5071571;28;20467;-65
2022/07/06 06:33:18;;;;;;;4.07;0.80;;;14.60;99.90;;;;;;5072370;28;20177;-65
2022/07/06 06:35:51;;;;;;;6.80;1.48;;;14.60;99.90;;;;;;5072329;28;20044;-64
2022/07/06 06:38:19;;;;;;;4.82;1.30;;;14.50;99.90;;;;;;5071977;28;20135;-64
2022/07/06 06:40:44;;;;;;;4.18;0.82;;;14.50;99.90;;;;;;5072238;28;20040;-65
2022/07/06 06:43:11;;;;;;;1.95;0.70;;;14.50;99.90;;;;;;5072206;28;20040;-65
2022/07/06 06:45:36;;;;;;;5.55;0.90;;;14.50;99.90;;;;;;5072172;28;20039;-65
2022/07/06 06:48:02;;;;;;;6.40;1.20;;;14.50;99.90;;;;;;5072087;28;20040;-64
2022/07/06 06:50:28;;;;;;;5.32;1.05;;;14.50;99.90;;;;;;5071949;28;20037;-64
2022/07/06 06:52:54;;;;;;;9.25;1.17;;;14.60;99.90;;;;;;5071933;28;20044;-64
2022/07/06 06:55:20;;;;;;;5.25;0.88;;;14.60;99.90;;;;;;5071826;28;20040;-65
2022/07/06 06:57:45;;;;;;;5.57;1.00;;;14.70;99.90;;;;;;5072129;28;20033;-64
2022/07/06 07:00:12;;;;;;;6.65;1.10;;;14.90;99.90;;;;;;5072230;28;20640;-65
2022/07/06 07:02:38;;;;;;;5.47;1.00;;;15.10;99.90;;;;;;5072039;28;20788;-65
2022/07/06 07:05:05;;;;;;;7.30;1.75;;;15.20;99.90;;;;;;5071992;28;20060;-65
2022/07/06 07:07:31;;;;;;;5.10;0.90;;;15.30;99.90;;;;;;5071913;28;20037;-64
2022/07/06 07:09:56;;;;;;;3.35;1.00;;;15.50;99.90;;;;;;5071885;28;20039;-65
2022/07/06 07:12:22;;;;;;;3.67;0.80;;;15.60;99.90;;;;;;5069318;28;20475;-65
2022/07/06 07:14:48;;;;;;;3.80;0.68;;;15.50;99.90;;;;;;5072067;28;20040;-65
2022/07/06 07:17:14;;;;;;;4.00;1.00;;;15.50;99.90;;;;;;5071747;28;20495;-65
2022/07/06 07:19:39;;;;;;;5.32;1.00;;;15.50;99.90;;;;;;5071992;28;20107;-62
2022/07/06 07:22:05;;;;;;;5.07;0.90;;;15.50;99.90;;;;;;5070323;28;20429;-64
2022/07/06 07:24:31;;;;;;;7.53;1.73;;;15.50;99.90;;;;;;5071722;28;20072;-63
2022/07/06 07:26:56;;;;;;;5.75;1.13;;;15.50;99.90;;;;;;5071710;28;20079;-63
2022/07/06 07:29:22;;;;;;;5.32;1.30;;;15.30;99.90;;;;;;5071787;28;20037;-65
2022/07/06 07:31:48;;;;;;;6.10;1.10;;;15.40;99.90;;;;;;5071589;28;20568;-63
2022/07/06 07:34:13;;;;;;;5.97;1.20;;;15.60;99.90;;;;;;5071706;28;20045;-64
2022/07/06 07:36:39;;;;;;;4.25;1.08;;;15.90;99.90;;;;;;5071424;28;20067;-63
2022/07/06 07:39:05;;;;;;;4.10;0.63;;;16.30;99.90;;;;;;5071436;28;20383;-64
2022/07/06 07:41:31;;;;;;;3.70;0.60;;;16.70;99.90;;;;;;5070378;28;20040;-64
2022/07/06 07:43:56;;;;;;;4.07;1.17;;;17.30;99.90;;;;;;5075963;28;20065;-62
2022/07/06 07:46:22;;;;;;;7.13;0.80;;;17.40;99.90;;;;;;5074766;28;20091;-65
2022/07/06 07:48:49;;;;;;;5.53;1.05;;;17.60;99.90;;;;;;5075607;28;20064;-64
2022/07/06 07:51:15;;;;;;;4.22;0.68;;;18.10;99.90;;;;;;5075366;28;20102;-64
2022/07/06 07:53:40;;;;;;;3.03;0.65;;;18.00;99.90;;;;;;5074646;28;20048;-64
2022/07/06 07:56:06;;;;;;;3.40;1.08;;;17.80;99.90;;;;;;5075499;28;20048;-64
2022/07/06 07:58:32;;;;;;;3.67;0.60;;;17.90;99.90;;;;;;5074364;28;20402;-66
2022/07/06 08:00:57;;;;;;;4.72;0.63;;;17.90;99.90;;;;;;5073927;28;20056;-66
2022/07/06 08:03:23;;;;;;;3.08;0.50;;;17.80;99.90;;;;;;5075180;28;20062;-65
2022/07/06 08:05:49;;;;;;;3.42;0.50;;;17.90;99.90;;;;;;5075090;28;20043;-64
2022/07/06 08:08:15;;;;;;;4.53;0.90;;;17.80;99.90;;;;;;5075274;28;20395;-65
2022/07/06 08:10:41;;;;;;;2.90;0.60;;;17.80;99.90;;;;;;5075289;28;20037;-65
2022/07/06 08:13:07;;;;;;;3.58;0.52;;;18.00;99.90;;;;;;5075123;28;20499;-64
2022/07/06 08:15:34;;;;;;;3.83;0.47;;;17.90;99.90;;;;;;5074944;28;20075;-64
2022/07/06 08:18:00;;;;;;;3.33;0.70;;;17.90;99.90;;;;;;5074926;28;20037;-64
2022/07/06 08:20:25;;;;;;;2.50;0.45;;;17.70;99.90;;;;;;5073468;28;20126;-65
2022/07/06 08:22:54;;;;;;;1.73;0.38;;;17.70;99.90;;;;;;5074615;28;20491;-64
2022/07/06 08:25:19;;;;;;;2.28;0.30;;;17.90;99.90;;;;;;5074902;28;20036;-64
2022/07/06 08:27:45;;;;;;;7.22;0.80;;;18.10;99.90;;;;;;5074580;28;20104;-64
2022/07/06 08:30:11;;;;;;;4.40;0.80;;;18.50;99.90;;;;;;5074830;28;20036;-65
2022/07/06 08:32:41;;;;;;;2.72;1.00;;;18.80;99.90;;;;;;5074682;28;20085;-64
2022/07/06 08:35:08;;;;;;;7.93;0.82;;;19.00;99.90;;;;;;5074829;28;20040;-64
2022/07/06 08:37:33;;;;;;;3.35;0.65;;;19.00;99.90;;;;;;5073354;28;20168;-64
2022/07/06 08:39:59;;;;;;;3.50;0.50;;;19.20;99.90;;;;;;5074636;28;20067;-65
2022/07/06 08:42:31;;;;;;;1.85;0.40;;;19.20;99.90;;;;;;5074341;28;20387;-64
2022/07/06 08:45:01;;;;;;;4.07;0.93;;;19.30;99.90;;;;;;5074419;28;20037;-64
2022/07/06 08:47:28;;;;;;;2.28;0.40;;;19.20;99.90;;;;;;5074287;28;20037;-64
2022/07/06 08:49:54;;;;;;;2.33;0.50;;;19.30;99.90;;;;;;5074389;28;20058;-65
2022/07/06 08:52:25;;;;;;;5.85;0.75;;;19.60;99.90;;;;;;5074260;28;20468;-65
2022/07/06 08:54:51;;;;;;;7.72;0.70;;;19.70;99.90;;;;;;5073397;28;20491;-65
2022/07/06 08:57:17;;;;;;;4.50;0.85;;;19.90;99.90;;;;;;5074115;28;20509;-63
2022/07/06 08:59:44;;;;;;;6.22;0.85;;;19.70;99.90;;;;;;5074167;28;20481;-64
2022/07/06 09:02:11;;;;;;;1.33;0.32;;;19.30;99.90;;;;;;5073953;28;20128;-65
2022/07/06 09:04:37;;;;;;;4.97;0.60;;;19.10;99.90;;;;;;5074109;28;20036;-64
2022/07/06 09:07:04;;;;;;;4.30;0.65;;;18.70;99.90;;;;;;5074195;28;20029;-65
2022/07/06 09:09:33;;;;;;;5.88;0.80;;;18.40;99.90;;;;;;5072976;28;20094;-64
2022/07/06 09:11:59;;;;;;;5.43;0.80;;;18.20;99.90;;;;;;5074040;28;20123;-65
2022/07/06 09:14:25;;;;;;;4.78;0.70;;;18.10;99.90;;;;;;5073778;28;20119;-64
2022/07/06 09:17:03;;;;;;;3.65;0.60;;;18.00;99.90;;;;;;5074011;28;20382;-64
2022/07/06 09:19:30;;;;;;;3.22;0.60;;;18.00;99.90;;;;;;5074376;28;20047;-65
2022/07/06 09:21:56;;;;;;;4.78;0.70;;;18.20;99.90;;;;;;5073832;28;20133;-64
2022/07/06 09:24:22;;;;;;;4.78;0.52;;;18.40;99.90;;;;;;5073952;28;20043;-64
2022/07/06 09:26:48;;;;;;;4.38;0.68;;;18.70;99.90;;;;;;5073513;28;20041;-64
2022/07/06 09:29:14;;;;;;;2.15;0.65;;;19.10;99.90;;;;;;5073568;28;20518;-64
2022/07/06 09:31:40;;;;;;;5.20;0.95;;;19.20;99.90;;;;;;5073689;28;20086;-64
2022/07/06 09:34:10;;;;;;;6.18;0.68;;;19.30;99.90;;;;;;5073367;28;20033;-64
2022/07/06 09:36:43;;;;;;;3.85;0.63;;;19.10;99.90;;;;;;5073358;28;20036;-64
2022/07/06 09:39:18;;;;;;;5.50;0.90;;;18.90;99.90;;;;;;5073352;28;20057;-65
2022/07/06 09:41:45;;;;;;;2.47;0.70;;;18.70;99.90;;;;;;5073277;28;20083;-63
2022/07/06 09:44:11;;;;;;;3.38;0.80;;;18.90;99.90;;;;;;5073600;28;20041;-63
2022/07/06 09:46:41;;;;;;;2.88;0.65;;;19.10;99.90;;;;;;5073266;28;20037;-64
2022/07/06 09:49:07;;;;;;;6.82;0.95;;;19.00;99.90;;;;;;5073240;28;20383;-64
2022/07/06 09:51:36;;;;;;;4.10;0.70;;;18.90;99.90;;;;;;5072201;28;20049;-64
2022/07/06 09:54:06;;;;;;;4.97;0.68;;;18.70;99.90;;;;;;5073042;28;20040;-64
2022/07/06 09:56:39;;;;;;;3.17;0.80;;;18.60;99.90;;;;;;5073344;28;20036;-63
2022/07/06 09:59:09;;;;;;;4.68;1.63;;;18.60;99.90;;;;;;5073089;28;20048;-63
2022/07/06 10:01:36;;;;;;;6.28;0.73;;;18.80;99.90;;;;;;5073048;28;20452;-64
2022/07/06 10:04:01;;;;;;;3.97;0.60;;;18.80;99.90;;;;;;5072907;28;20043;-64
2022/07/06 10:06:27;;;;;;;4.30;0.80;;;18.90;99.90;;;;;;5071623;28;20406;-65
2022/07/06 10:08:57;;;;;;;2.97;0.70;;;18.80;99.90;;;;;;5073070;28;20024;-63
2022/07/06 10:11:24;;;;;;;2.25;0.73;;;18.70;99.90;;;;;;5071404;28;20458;-65
2022/07/06 10:13:54;;;;;;;2.83;0.90;;;18.70;99.90;;;;;;5071693;28;20048;-64
2022/07/06 10:16:22;;;;;;;4.18;0.75;;;18.70;99.90;;;;;;5072637;28;20123;-65
2022/07/06 10:18:49;;;;;;;3.60;1.08;;;18.80;99.90;;;;;;5072615;28;20048;-63
2022/07/06 10:21:16;;;;;;;8.55;0.75;;;18.80;99.90;;;;;;5072377;28;20560;-65
2022/07/06 10:23:42;;;;;;;5.18;0.50;;;19.00;99.90;;;;;;5072395;28;20040;-64
2022/07/06 10:26:09;;;;;;;3.35;0.68;;;19.40;99.90;;;;;;5072306;28;20487;-63
2022/07/06 10:28:35;;;;;;;8.48;0.70;;;19.70;99.90;;;;;;5072424;28;20433;-63
2022/07/06 10:31:01;;;;;;;2.13;0.50;;;20.00;99.90;;;;;;5072345;28;20052;-63
2022/07/06 10:33:27;;;;;;;3.22;0.88;;;20.20;99.90;;;;;;5072177;28;20116;-64
2022/07/06 10:35:55;;;;;;;5.43;0.70;;;20.40;99.90;;;;;;5072211;28;20543;-64
2022/07/06 10:38:31;;;;;;;5.55;1.10;;;20.20;99.90;;;;;;5071036;28;20141;-64
2022/07/06 10:41:09;;;;;;;2.92;0.65;;;20.30;99.90;;;;;;5070968;28;20063;-63
2022/07/06 10:43:36;;;;;;;2.88;0.60;;;20.40;99.90;;;;;;5072156;28;20040;-63
2022/07/06 10:46:11;;;;;;;2.53;0.60;;;20.20;99.90;;;;;;5071846;28;20051;-63
2022/07/06 10:48:39;;;;;;;2.28;0.60;;;20.30;99.90;;;;;;5072231;28;20040;-63
2022/07/06 10:51:05;;;;;;;2.83;0.55;;;20.30;99.90;;;;;;5071877;28;20043;-64
2022/07/06 10:53:37;;;;;;;2.30;0.60;;;20.60;99.90;;;;;;5071944;28;20036;-64
2022/07/06 10:56:09;;;;;;;5.15;0.93;;;20.50;99.90;;;;;;5072052;28;20409;-64
2022/07/06 10:58:51;;;;;;;7.68;1.13;;;20.50;99.90;;;;;;5071340;28;20494;-65
2022/07/06 11:01:18;;;;;;;4.28;0.77;;;20.20;99.90;;;;;;5071995;28;20123;-63
2022/07/06 11:03:48;;;;;;;2.35;0.38;;;19.90;99.90;;;;;;5071846;28;20048;-64
2022/07/06 11:06:21;;;;;;;2.45;0.55;;;20.10;99.90;;;;;;5072126;28;20554;-64
2022/07/06 11:09:00;;;;;;;4.18;0.80;;;20.50;99.90;;;;;;5071740;28;20036;-63
2022/07/06 11:11:41;;;;;;;2.17;0.45;;;20.90;99.90;;;;;;5071924;28;20048;-63
2022/07/06 11:14:16;;;;;;;1.95;0.73;;;21.30;99.90;;;;;;5071806;28;20363;-64
2022/07/06 11:16:47;;;;;;;2.45;0.98;;;21.50;99.90;;;;;;5070519;28;20061;-63
2022/07/06 11:19:15;;;;;;;2.67;0.60;;;21.30;99.90;;;;;;5071715;28;20479;-65
2022/07/06 11:21:41;;;;;;;2.70;0.70;;;21.10;99.90;;;;;;5071667;28;20040;-64
2022/07/06 11:24:10;;;;;;;3.03;0.90;;;20.80;99.90;;;;;;5071544;28;20040;-65
2022/07/06 11:26:36;;;;;;;6.88;0.95;;;20.80;99.90;;;;;;5070594;28;20109;-64
2022/07/06 11:29:06;;;;;;;2.45;0.57;;;21.10;99.90;;;;;;5071791;28;20060;-64
2022/07/06 11:31:37;;;;;;;0.90;0.50;;;21.10;99.90;;;;;;5070445;28;20036;-64
2022/07/06 11:34:05;;;;;;;1.23;0.40;;;21.40;99.90;;;;;;5071436;28;20490;-63
2022/07/06 11:36:31;;;;;;;2.83;0.70;;;21.80;99.90;;;;;;5071510;28;20498;-63
2022/07/06 11:38:56;;;;;;;3.53;0.80;;;21.80;99.90;;;;;;5071269;28;20102;-64
2022/07/06 11:41:22;;;;;;;1.95;0.60;;;21.80;99.90;;;;;;5071549;28;20080;-64
2022/07/06 11:43:51;;;;;;;4.65;0.68;;;21.70;99.90;;;;;;5071429;28;20060;-64
2022/07/06 11:46:29;;;;;;;;;;;22.30;99.90;;;;;;5071939;28;20479;-64
2022/07/06 11:48:57;;;;;;;10.55;0.77;;;22.40;99.90;;;;;;5071820;28;19916;-63
2022/07/06 11:51:28;;;;;;;2.15;0.50;;;22.60;99.90;;;;;;5071671;28;20041;-63
2022/07/06 11:54:02;;;;;;;5.65;0.90;;;22.40;99.90;;;;;;5071425;28;20048;-61
2022/07/06 11:56:29;;;;;;;15.82;1.65;;;22.60;99.90;;;;;;5071211;28;20040;-61
2022/07/06 11:58:57;;;;;;;1.88;0.50;;;22.50;99.90;;;;;;5071385;28;20048;-61
2022/07/06 12:01:24;;;;;;;4.18;0.60;;;22.20;99.90;;;;;;5069948;28;20442;-61
2022/07/06 12:03:51;;;;;;;2.47;0.55;;;22.20;99.90;;;;;;5071490;28;20414;-62
2022/07/06 12:06:22;;;;;;;4.10;0.70;;;23.30;99.90;;;;;;5071187;28;20517;-61
2022/07/06 12:08:56;;;;;;;2.78;0.45;;;23.30;99.00;;;;;;5071317;28;20068;-60
2022/07/06 12:11:34;;;;;;;3.05;0.50;;;22.80;99.90;;;;;;5069843;28;20055;-61
2022/07/06 12:14:16;;;;;;;2.30;0.85;;;22.60;99.90;;;;;;5071264;28;20040;-62
2022/07/06 12:16:42;;;;;;;1.80;0.60;;;22.80;99.90;;;;;;5071296;28;20041;-62
2022/07/06 12:19:08;;;;;;;3.13;0.88;;;23.00;99.40;;;;;;5071030;28;20082;-63
2022/07/06 12:21:34;;;;;;;4.50;0.80;;;22.80;99.90;;;;;;5071144;28;20045;-63
2022/07/06 12:24:00;;;;;;;2.42;0.52;;;22.80;99.90;;;;;;5071005;28;20548;-62
2022/07/06 12:26:30;;;;;;;4.45;0.60;;;22.50;99.90;;;;;;5071372;28;20037;-63
2022/07/06 12:29:12;;;;;;;3.97;0.63;;;22.20;99.90;;;;;;5071609;28;20040;-62
2022/07/06 12:31:40;;;;;;;2.47;0.70;;;22.40;99.90;;;;;;5074873;28;20558;-62
2022/07/06 12:34:31;;;;;;;2.72;0.55;;;22.70;99.90;;;;;;5074869;28;20048;-62
2022/07/06 12:37:04;;;;;;;4.57;0.90;;;22.90;99.90;;;;;;5074312;28;20054;-62
2022/07/06 12:39:30;;;;;;;4.60;1.10;;;23.00;99.90;;;;;;5073915;28;20144;-62
2022/07/06 12:42:01;;;;;;;3.13;1.00;;;23.00;99.90;;;;;;5074292;28;20119;-62
2022/07/06 12:44:27;;;;;;;3.35;0.90;;;23.30;99.90;;;;;;5074472;28;20564;-62
2022/07/06 12:47:02;;;;;;;4.18;0.90;;;23.20;99.90;;;;;;5074399;28;20124;-62
2022/07/06 12:49:28;;;;;;;1.65;0.57;;;22.80;99.90;;;;;;5074702;28;20048;-62
2022/07/06 12:51:55;;;;;;;2.38;0.65;;;22.60;99.90;;;;;;5074335;28;20403;-62
2022/07/06 12:54:21;;;;;;;2.72;0.70;;;22.20;99.90;;;;;;5074408;28;20506;-62